createdAt,value
2023-02-24T00:00:33.126Z,3.09
2023-02-24T00:05:55.009Z,3.26
2023-02-24T00:11:18.553Z,3.30
2023-02-24T00:16:40.706Z,3.28
2023-02-24T00:22:04.761Z,3.37
2023-02-24T00:27:26.700Z,3.39
2023-02-24T00:32:48.654Z,3.59
2023-02-24T00:38:10.642Z,3.70
2023-02-24T00:43:32.497Z,3.71
2023-02-24T00:48:54.627Z,3.76
2023-02-24T00:54:17.451Z,3.55
2023-02-24T00:59:39.930Z,3.47
2023-02-24T01:05:02.451Z,3.54
2023-02-24T01:10:24.283Z,3.63
2023-02-24T01:15:46.148Z,3.63
2023-02-24T01:21:08.012Z,3.56
2023-02-24T01:26:30.007Z,3.64
2023-02-24T01:31:52.609Z,3.79
2023-02-24T01:37:14.618Z,3.93
2023-02-24T01:42:36.517Z,3.99
2023-02-24T01:48:02.944Z,3.96
2023-02-24T01:53:24.979Z,3.81
2023-02-24T01:58:47.142Z,3.73
2023-02-24T02:04:29.127Z,3.73
2023-02-24T02:09:52.215Z,3.80
2023-02-24T02:15:18.165Z,3.76
2023-02-24T02:21:01.793Z,3.74
2023-02-24T02:26:45.127Z,3.77
2023-02-24T02:32:25.874Z,3.78
2023-02-24T02:37:54.963Z,3.88
2023-02-24T02:43:35.187Z,3.94
2023-02-24T02:48:59.287Z,4.14
2023-02-24T02:54:40.580Z,4.14
2023-02-24T03:00:27.870Z,4.34
2023-02-24T03:05:55.655Z,4.38
2023-02-24T03:11:20.437Z,4.48
2023-02-24T03:16:45.854Z,4.54
2023-02-24T03:22:13.093Z,4.64
2023-02-24T03:27:59.581Z,4.57
2023-02-24T03:33:35.660Z,4.36
2023-02-24T03:38:58.647Z,4.44
2023-02-24T03:44:20.580Z,4.55
2023-02-24T03:49:42.450Z,4.58
2023-02-24T03:55:45.633Z,4.66
2023-02-24T04:01:22.274Z,4.68
2023-02-24T04:06:56.105Z,4.87
2023-02-24T04:12:46.004Z,4.88
2023-02-24T04:18:21.625Z,5.01
2023-02-24T04:23:45.025Z,5.04
2023-02-24T04:29:09.180Z,5.06
2023-02-24T04:34:31.222Z,5.18
2023-02-24T04:39:53.081Z,5.25
2023-02-24T04:45:14.977Z,5.33
2023-02-24T04:50:37.647Z,5.32
2023-02-24T04:56:03.634Z,5.42
2023-02-24T05:01:25.518Z,5.54
2023-02-24T05:06:47.402Z,5.66
2023-02-24T05:12:09.239Z,5.72
2023-02-24T05:17:31.149Z,5.81
2023-02-24T05:22:53.035Z,5.75
2023-02-24T05:28:15.022Z,5.88
2023-02-24T05:33:38.326Z,5.96
2023-02-24T05:39:00.834Z,5.96
2023-02-24T05:44:24.267Z,5.96
2023-02-24T05:49:46.113Z,6.08
2023-02-24T05:55:08.322Z,6.10
2023-02-24T06:00:30.182Z,6.14
2023-02-24T06:05:55.085Z,6.24
2023-02-24T06:11:19.635Z,6.23
2023-02-24T06:16:42.662Z,6.34
2023-02-24T06:22:04.593Z,6.41
2023-02-24T06:27:26.605Z,6.45
2023-02-24T06:32:49.342Z,6.63
2023-02-24T06:38:11.310Z,6.69
2023-02-24T06:43:33.481Z,6.75
2023-02-24T06:48:55.681Z,6.84
2023-02-24T06:54:17.537Z,6.89
2023-02-24T06:59:39.365Z,6.84
2023-02-24T07:05:01.233Z,7.01
2023-02-24T07:10:23.075Z,7.13
2023-02-24T07:15:44.919Z,7.11
2023-02-24T07:21:07.655Z,7.18
2023-02-24T07:26:29.515Z,7.26
2023-02-24T07:31:51.571Z,7.41
2023-02-24T07:37:13.668Z,7.27
2023-02-24T07:42:35.590Z,7.15
2023-02-24T07:47:57.458Z,7.39
2023-02-24T07:53:19.319Z,7.36
2023-02-24T07:58:41.386Z,7.47
2023-02-24T08:04:03.332Z,7.60
2023-02-24T08:09:27.966Z,7.71
2023-02-24T08:14:52.615Z,7.69
2023-02-24T08:20:15.568Z,7.90
2023-02-24T08:25:37.519Z,7.94
2023-02-24T08:31:02.782Z,7.86
2023-02-24T08:36:24.833Z,8.06
2023-02-24T08:41:46.677Z,8.19
2023-02-24T08:47:08.537Z,8.16
2023-02-24T08:52:32.261Z,8.05
2023-02-24T08:57:54.341Z,8.15
2023-02-24T09:03:18.275Z,8.32
2023-02-24T09:08:40.690Z,8.22
2023-02-24T09:14:02.638Z,8.24
2023-02-24T09:19:24.561Z,8.23
2023-02-24T09:24:46.471Z,8.00
2023-02-24T09:30:13.022Z,8.14
2023-02-24T09:35:35.237Z,7.89
2023-02-24T09:40:58.561Z,8.15
2023-02-24T09:46:21.687Z,8.08
2023-02-24T09:51:44.760Z,8.18
2023-02-24T09:57:15.846Z,8.16
2023-02-24T10:02:42.012Z,8.38
2023-02-24T10:08:15.729Z,8.28
2023-02-24T10:13:54.331Z,8.35
2023-02-24T10:19:32.338Z,8.26
2023-02-24T10:25:21.259Z,8.41
2023-02-24T10:31:03.674Z,8.37
2023-02-24T10:36:26.496Z,8.15
2023-02-24T10:41:51.812Z,8.08
2023-02-24T10:47:13.795Z,8.23
2023-02-24T10:52:37.338Z,8.24
2023-02-24T10:58:04.347Z,8.17
2023-02-24T11:03:32.658Z,8.36
2023-02-24T11:08:58.634Z,8.12
2023-02-24T11:14:20.900Z,8.12
2023-02-24T11:19:54.575Z,8.10
2023-02-24T11:25:27.007Z,7.95
2023-02-24T11:31:10.441Z,8.03
2023-02-24T11:36:40.770Z,8.31
2023-02-24T11:42:08.543Z,8.33
2023-02-24T11:47:45.244Z,8.04
2023-02-24T11:53:22.815Z,8.12
2023-02-24T11:59:04.323Z,8.26
2023-02-24T12:04:35.265Z,8.71
2023-02-24T12:10:17.831Z,8.92
2023-02-24T12:16:00.926Z,9.07
2023-02-24T12:21:25.938Z,9.43
2023-02-24T12:27:18.582Z,9.32
2023-02-24T12:32:52.964Z,9.50
2023-02-24T12:38:47.822Z,9.29
2023-02-24T12:44:23.581Z,9.15
2023-02-24T12:50:07.034Z,9.49
2023-02-24T12:55:51.686Z,9.98
2023-02-24T13:01:24.554Z,9.47
2023-02-24T13:06:58.561Z,9.54
2023-02-24T13:12:31.206Z,9.39
2023-02-24T13:17:57.690Z,8.94
2023-02-24T13:23:22.062Z,9.09
2023-02-24T13:28:44.140Z,9.82
2023-02-24T13:34:28.824Z,9.44
2023-02-24T13:39:50.691Z,8.93
2023-02-24T13:45:20.213Z,9.01
2023-02-24T13:51:03.878Z,9.15
2023-02-24T13:56:44.420Z,9.15
2023-02-24T14:02:14.980Z,9.47
2023-02-24T14:07:39.389Z,9.48
2023-02-24T14:13:14.066Z,9.50
2023-02-24T14:18:36.038Z,9.59
2023-02-24T14:24:10.801Z,9.48
2023-02-24T14:29:43.617Z,9.42
2023-02-24T14:35:06.580Z,9.34
2023-02-24T14:40:29.182Z,9.38
2023-02-24T14:45:53.159Z,9.11
2023-02-24T14:51:31.050Z,8.77
2023-02-24T14:56:53.093Z,8.78
2023-02-24T15:02:20.474Z,8.57
2023-02-24T15:07:44.777Z,8.50
2023-02-24T15:13:23.309Z,8.42
2023-02-24T15:18:50.230Z,8.36
2023-02-24T15:24:34.113Z,8.39
2023-02-24T15:30:24.873Z,8.26
2023-02-24T15:35:58.827Z,8.13
2023-02-24T15:41:20.711Z,8.15
2023-02-24T15:46:42.863Z,8.08
2023-02-24T15:52:09.939Z,7.99
2023-02-24T15:57:32.794Z,7.76
2023-02-24T16:02:54.687Z,7.93
2023-02-24T16:08:19.365Z,7.88
2023-02-24T16:13:47.337Z,7.71
2023-02-24T16:19:14.142Z,7.82
2023-02-24T16:24:35.982Z,7.79
2023-02-24T16:29:58.566Z,7.60
2023-02-24T16:35:20.396Z,7.46
2023-02-24T16:40:45.428Z,7.30
2023-02-24T16:46:13.894Z,7.16
2023-02-24T16:51:36.032Z,6.93
2023-02-24T16:56:58.151Z,7.03
2023-02-24T17:02:24.706Z,6.78
2023-02-24T17:07:50.159Z,6.42
2023-02-24T17:13:17.868Z,6.69
2023-02-24T17:18:39.804Z,6.68
2023-02-24T17:24:01.689Z,6.58
2023-02-24T17:29:23.521Z,6.48
2023-02-24T17:34:45.342Z,6.21
2023-02-24T17:40:08.231Z,5.98
2023-02-24T17:45:30.071Z,5.81
2023-02-24T17:50:51.980Z,5.71
2023-02-24T17:56:13.823Z,5.49
2023-02-24T18:01:35.662Z,5.51
2023-02-24T18:06:57.487Z,5.56
2023-02-24T18:12:20.197Z,5.48
2023-02-24T18:17:42.083Z,5.57
2023-02-24T18:23:03.952Z,5.37
2023-02-24T18:28:25.808Z,5.45
2023-02-24T18:33:48.335Z,5.47
2023-02-24T18:39:10.413Z,5.45
2023-02-24T18:44:32.379Z,5.48
2023-02-24T18:49:54.332Z,5.45
2023-02-24T18:55:16.362Z,5.40
2023-02-24T19:00:38.601Z,5.36
2023-02-24T19:06:00.541Z,5.20
2023-02-24T19:11:22.409Z,5.22
2023-02-24T19:16:45.300Z,5.07
2023-02-24T19:22:07.220Z,5.13
2023-02-24T19:27:29.109Z,4.95
2023-02-24T19:32:51.128Z,4.87
2023-02-24T19:38:18.329Z,4.91
2023-02-24T19:43:40.254Z,4.82
2023-02-24T19:49:03.164Z,4.56
2023-02-24T19:54:25.300Z,4.63
2023-02-24T19:59:49.928Z,4.62
2023-02-24T20:05:11.866Z,4.49
2023-02-24T20:10:33.713Z,4.66
2023-02-24T20:16:13.180Z,4.63
2023-02-24T20:21:36.080Z,4.63
2023-02-24T20:26:57.917Z,4.57
2023-02-24T20:32:19.812Z,4.56
2023-02-24T20:37:41.720Z,4.53
2023-02-24T20:43:05.731Z,4.56
2023-02-24T20:48:27.551Z,4.60
2023-02-24T20:53:57.227Z,4.61
2023-02-24T20:59:21.156Z,4.65
2023-02-24T21:04:42.991Z,4.72
2023-02-24T21:10:05.414Z,4.67
2023-02-24T21:15:27.387Z,4.71
2023-02-24T21:20:53.119Z,4.85
2023-02-24T21:26:15.228Z,4.83
2023-02-24T21:31:37.122Z,4.89
2023-02-24T21:36:59.080Z,4.84
2023-02-24T21:42:20.989Z,4.81
2023-02-24T21:47:43.232Z,4.91
2023-02-24T21:53:05.138Z,4.93
2023-02-24T21:58:26.971Z,5.03
2023-02-24T22:03:48.988Z,5.08
2023-02-24T22:09:12.055Z,5.09
2023-02-24T22:14:33.888Z,5.09
2023-02-24T22:19:55.734Z,5.09
2023-02-24T22:25:17.629Z,5.12
2023-02-24T22:30:39.478Z,5.08
2023-02-24T22:36:06.820Z,5.05
2023-02-24T22:41:32.195Z,4.97
2023-02-24T22:46:54.106Z,4.89
2023-02-24T22:52:15.943Z,4.92
2023-02-24T22:57:37.797Z,4.71
2023-02-24T23:02:59.665Z,4.93
2023-02-24T23:08:21.958Z,5.01
2023-02-24T23:13:45.687Z,4.80
2023-02-24T23:19:13.523Z,5.01
2023-02-24T23:24:35.395Z,4.86
2023-02-24T23:29:57.234Z,4.99
2023-02-24T23:35:19.057Z,5.02
2023-02-24T23:40:49.910Z,5.01
2023-02-24T23:46:13.221Z,5.00
2023-02-24T23:51:47.541Z,4.97
2023-02-24T23:57:10.185Z,5.00
